• Join FlightAware (Why Join?)
  • Login
  • US Flag 
11:09PM EDT


 

Airport Tracker/Info


-or-


 

Live Flight TrackerFlight Track Log ✈ N342ER ✈ 24-Apr-2013 ✈ KBHM - KAUO

Flight Track Log - Related Links

Times and Time Zones

All times are in EDT time to prevent confusion due to time zone crossing. See the N342ER flight status page for this flight to view local times or setup timezone preferences in your user account.

Time Position Orientation Groundspeed Altitude Reporting Facility
EDT Latitude Longitude Course Direction KTS MPH feet Rate Location/Type
05:03PM 33.5411 -86.7506 174° South 151 174 1,200  Level Atlanta Center
05:05PM 33.4911 -86.7439 174° South 149 171 3,500 1,800 Climbing Atlanta Center
05:06PM 33.4539 -86.7353 169° South 127 146 5,200 1,440 Climbing Atlanta Center
05:07PM 33.4161 -86.7342 179° South 132 152 6,600 900 Climbing Atlanta Center
05:08PM 33.3783 -86.7528 202° Southwest 163 188 7,100 240 Climbing Atlanta Center
05:09PM 33.3358 -86.7814 209° Southwest 197 227 7,100  Level Atlanta Center
05:10PM 33.2914 -86.8147 212° Southwest 196 226 7,100  Level Atlanta Center
05:11PM 33.2344 -86.8303 193° South 207 238 7,100  Level Atlanta Center
05:12PM 33.1903 -86.7619 128° Southeast 232 267 7,100 -120 Level Atlanta Center
05:14PM 33.1311 -86.6774 115° Southeast  Level FlightAware Approximate
05:21PM 32.9399 -86.2160 117° Southeast  Level FlightAware Approximate
05:22PM 32.9117 -86.1507 117° Southeast  Level FlightAware Approximate
05:23PM 32.8835 -86.0855 117° Southeast  Level FlightAware Approximate
05:23PM 32.8667 -85.9833 117° Southeast 237 273 5,900  Level Atlanta TRACON
05:24PM 32.8552 -86.0202 117° Southeast  Level FlightAware Approximate
05:24PM 32.8333 -85.9167 121° Southeast 238 274 5,300  Level Atlanta TRACON
05:25PM 32.8269 -85.9550 117° Southeast  Level FlightAware Approximate
05:25PM 32.8000 -85.8500 121° Southeast 228 262 5,000  Level Atlanta TRACON
05:26PM 32.7986 -85.8899 117° Southeast  Level FlightAware Approximate
05:26PM 32.7667 -85.7833 121° Southeast 217 250 4,800  Level Atlanta TRACON
05:27PM 32.7702 -85.8248 117° Southeast  Level FlightAware Approximate
05:27PM 32.7333 -85.7167 121° Southeast 228 262 4,000  Level Atlanta TRACON
05:28PM 32.7461 -85.7574 117° Southeast  Level FlightAware Approximate
05:28PM 32.7167 -85.6500 107° East 225 259 3,400  Level Atlanta TRACON